Time;durP1;ratioP1;P1;durP2;ratioP2;P2;SDS_P1;SDS_P2;PMS_P1;PMS_P2;Temp;Humidity;BMP_temperature;BMP_pressure;BME280_temperature;BME280_humidity;BME280_pressure;Samples;Min_cycle;Max_cycle;Signal;HPM_P1;HPM_P2
2024/01/03 00:00:52;;;;;;;182.40;100.65;;;5.20;99.90;;;;;;5027860;28;20133;-76
2024/01/03 00:03:22;;;;;;;186.60;99.57;;;5.30;1.00;;;;;;5046531;28;20041;-78
2024/01/03 00:05:50;;;;;;;185.98;97.28;;;5.20;99.90;;;;;;5030959;28;20675;-77
2024/01/03 00:08:27;;;;;;;191.93;98.25;;;5.10;99.90;;;;;;5031730;28;20520;-77
2024/01/03 00:10:56;;;;;;;180.77;96.43;;;5.20;99.90;;;;;;5024466;28;20446;-80
2024/01/03 00:14:00;;;;;;;223.10;115.95;;;5.30;1.00;;;;;;5029326;28;20064;-75
2024/01/03 00:16:28;;;;;;;206.18;103.65;;;5.20;1.00;;;;;;5023276;28;20050;-77
2024/01/03 00:18:59;;;;;;;209.10;105.07;;;5.30;1.00;;;;;;5042943;28;20109;-76
2024/01/03 00:21:29;;;;;;;209.80;104.32;;;5.30;1.00;;;;;;5041961;28;20416;-77
2024/01/03 00:23:58;;;;;;;197.68;101.47;;;5.30;28.00;;;;;;5026219;28;20504;-78
2024/01/03 00:26:27;;;;;;;158.52;85.03;;;5.40;1.00;;;;;;5024702;28;20156;-77
2024/01/03 00:28:55;;;;;;;136.45;71.57;;;5.30;1.00;;;;;;5028275;28;20045;-76
2024/01/03 00:31:40;;;;;;;126.32;68.45;;;5.20;99.90;;;;;;5053645;28;20076;-77
2024/01/03 00:34:38;;;;;;;91.80;51.22;;;5.20;1.00;;;;;;5025902;28;20107;-78
2024/01/03 00:37:18;;;;;;;113.45;62.85;;;5.40;39.70;;;;;;5038956;28;20150;-78
2024/01/03 00:39:48;;;;;;;111.20;62.08;;;5.60;99.90;;;;;;5057234;28;20050;-78
2024/01/03 00:42:15;;;;;;;149.05;81.80;;;5.80;1.00;;;;;;5045507;28;20107;-75
2024/01/03 00:44:44;;;;;;;140.13;75.82;;;5.80;99.90;;;;;;5028562;28;20130;-76
2024/01/03 00:47:12;;;;;;;131.75;73.38;;;5.70;1.00;;;;;;5026434;28;20137;-77
2024/01/03 00:49:42;;;;;;;139.88;73.10;;;5.70;99.90;;;;;;5026666;28;20493;-78
2024/01/03 00:52:10;;;;;;;143.50;76.10;;;5.70;1.00;;;;;;5027320;28;20056;-77
2024/01/03 00:54:38;;;;;;;140.45;76.30;;;5.60;99.90;;;;;;5035210;28;20048;-77
2024/01/03 00:57:07;;;;;;;161.30;85.47;;;5.60;1.00;;;;;;5053066;28;20056;-76
2024/01/03 00:59:37;;;;;;;167.82;87.53;;;5.60;99.90;;;;;;5032013;28;20045;-75
2024/01/03 01:02:06;;;;;;;173.40;92.40;;;5.60;1.00;;;;;;5036387;28;20069;-78
2024/01/03 01:04:34;;;;;;;154.13;83.05;;;5.50;99.90;;;;;;5044602;28;20064;-77
2024/01/03 01:07:03;;;;;;;142.40;78.25;;;5.60;1.00;;;;;;5046640;28;20055;-75
2024/01/03 01:09:31;;;;;;;146.38;83.40;;;5.60;1.00;;;;;;5048357;28;20061;-76
2024/01/03 01:11:59;;;;;;;128.45;69.22;;;5.60;99.90;;;;;;5048875;28;20026;-77
2024/01/03 01:14:27;;;;;;;103.97;58.50;;;5.70;1.00;;;;;;5062381;28;20041;-75
2024/01/03 01:16:54;;;;;;;98.60;56.03;;;5.80;22.50;;;;;;5028214;28;20057;-75
2024/01/03 01:19:22;;;;;;;112.07;62.67;;;5.90;1.00;;;;;;5033738;28;20048;-77
2024/01/03 01:21:50;;;;;;;118.03;66.55;;;5.90;99.90;;;;;;5031864;28;20052;-77
2024/01/03 01:24:20;;;;;;;114.10;63.97;;;5.90;99.90;;;;;;5031717;28;20040;-76
2024/01/03 01:26:48;;;;;;;108.55;62.05;;;5.80;99.90;;;;;;5032090;28;20485;-76
2024/01/03 01:29:17;;;;;;;101.57;55.97;;;5.90;1.00;;;;;;5026638;28;20049;-76
2024/01/03 01:31:47;;;;;;;79.03;44.35;;;6.00;99.90;;;;;;5032491;28;20102;-77
2024/01/03 01:34:15;;;;;;;78.15;45.10;;;6.10;1.00;;;;;;5026727;28;20059;-77
2024/01/03 01:36:43;;;;;;;92.03;53.97;;;6.30;99.90;;;;;;5031897;28;20056;-78
2024/01/03 01:39:10;;;;;;;101.90;55.13;;;6.40;99.90;;;;;;5044525;28;20045;-77
2024/01/03 01:41:39;;;;;;;105.18;53.22;;;6.40;1.00;;;;;;5026209;28;20049;-76
2024/01/03 01:44:09;;;;;;;94.63;52.60;;;6.40;99.90;;;;;;5033915;28;20045;-77
2024/01/03 01:46:37;;;;;;;106.97;58.00;;;6.30;99.90;;;;;;5040147;28;20061;-77
2024/01/03 01:49:05;;;;;;;107.50;59.72;;;6.30;1.00;;;;;;5036988;28;20059;-79
2024/01/03 01:51:34;;;;;;;90.30;50.50;;;6.30;19.90;;;;;;5046939;28;20477;-79
2024/01/03 01:54:02;;;;;;;93.68;50.20;;;6.40;99.90;;;;;;5033828;28;20045;-79
2024/01/03 01:56:31;;;;;;;75.28;42.85;;;6.40;1.00;;;;;;5051130;28;20043;-78
2024/01/03 01:59:00;;;;;;;72.03;39.47;;;6.40;99.90;;;;;;5037622;28;20049;-79
2024/01/03 02:01:30;;;;;;;70.07;39.47;;;6.50;99.90;;;;;;5039063;28;20040;-79
2024/01/03 02:03:58;;;;;;;73.10;41.58;;;6.50;1.00;;;;;;5035423;28;20045;-79
2024/01/03 02:06:27;;;;;;;73.50;41.53;;;6.50;1.00;;;;;;5059728;28;20052;-78
2024/01/03 02:08:54;;;;;;;88.78;48.78;;;6.50;99.90;;;;;;5029459;28;20375;-78
2024/01/03 02:11:22;;;;;;;95.18;54.40;;;6.50;1.00;;;;;;5043540;28;20119;-78
2024/01/03 02:13:50;;;;;;;77.35;42.95;;;6.40;1.00;;;;;;5035696;28;20113;-77
2024/01/03 02:16:19;;;;;;;68.18;37.55;;;6.50;1.00;;;;;;5036309;28;20056;-78
2024/01/03 02:18:48;;;;;;;73.95;40.70;;;6.60;99.90;;;;;;5057032;28;20048;-77
2024/01/03 02:21:18;;;;;;;68.57;38.22;;;6.60;99.90;;;;;;5052097;28;20590;-77
2024/01/03 02:23:46;;;;;;;71.30;38.70;;;6.70;99.90;;;;;;5021939;28;20076;-76
2024/01/03 02:26:13;;;;;;;56.08;30.52;;;6.60;1.00;;;;;;5021189;28;20044;-76
2024/01/03 02:28:41;;;;;;;69.93;39.33;;;6.60;1.00;;;;;;5040858;28;20050;-77
2024/01/03 02:31:09;;;;;;;70.68;39.53;;;6.60;1.00;;;;;;5026987;28;20041;-76
2024/01/03 02:33:39;;;;;;;63.88;35.30;;;6.60;99.90;;;;;;5041310;28;20159;-77
2024/01/03 02:36:07;;;;;;;71.15;38.83;;;6.80;1.00;;;;;;5040404;28;20040;-78
2024/01/03 02:38:36;;;;;;;64.00;36.00;;;6.80;1.00;;;;;;5045441;28;20121;-76
2024/01/03 02:41:04;;;;;;;72.35;41.63;;;6.90;1.00;;;;;;5048054;28;20044;-78
2024/01/03 02:43:32;;;;;;;57.88;31.17;;;7.00;26.50;;;;;;5038780;28;20045;-77
2024/01/03 02:46:00;;;;;;;54.80;29.33;;;7.00;99.90;;;;;;5032368;28;20053;-77
2024/01/03 02:48:27;;;;;;;51.25;27.35;;;7.10;28.00;;;;;;5042371;28;20049;-76
2024/01/03 02:50:55;;;;;;;27.38;13.27;;;7.20;1.00;;;;;;5044337;28;20049;-77
2024/01/03 02:53:23;;;;;;;31.48;16.52;;;7.50;1.00;;;;;;5025478;28;20045;-76
2024/01/03 02:55:52;;;;;;;18.30;9.63;;;7.80;1.00;;;;;;5031381;28;20049;-78
2024/01/03 02:58:19;;;;;;;13.98;7.90;;;8.20;1.00;;;;;;5028973;28;20073;-79
2024/01/03 03:00:47;;;;;;;17.58;9.57;;;8.60;99.90;;;;;;5044088;28;20052;-77
2024/01/03 03:03:15;;;;;;;9.77;4.03;;;9.00;99.90;;;;;;5040641;28;20049;-77
2024/01/03 03:05:43;;;;;;;8.85;3.67;;;9.40;1.00;;;;;;5027024;28;20061;-78
2024/01/03 03:08:10;;;;;;;9.95;2.50;;;9.60;1.00;;;;;;5049123;28;20037;-77
2024/01/03 03:10:38;;;;;;;5.20;2.20;;;10.00;99.90;;;;;;5030587;28;20546;-77
2024/01/03 03:13:07;;;;;;;5.05;2.15;;;10.10;99.90;;;;;;5027490;28;20045;-78
2024/01/03 03:15:35;;;;;;;5.68;2.17;;;10.30;99.90;;;;;;5029707;28;20041;-79
2024/01/03 03:18:03;;;;;;;5.95;2.20;;;10.50;99.90;;;;;;5025753;28;20045;-79
2024/01/03 03:20:30;;;;;;;6.05;2.00;;;10.60;92.90;;;;;;5043622;28;20068;-79
2024/01/03 03:22:59;;;;;;;4.00;1.40;;;10.80;33.70;;;;;;5025402;28;20396;-78
2024/01/03 03:25:27;;;;;;;5.85;1.63;;;10.80;25.60;;;;;;5034723;28;20237;-79
2024/01/03 03:27:55;;;;;;;3.40;1.50;;;10.80;6.10;;;;;;5056407;28;20054;-78
2024/01/03 03:30:24;;;;;;;3.63;1.60;;;10.80;1.00;;;;;;5062469;28;20045;-78
2024/01/03 03:32:52;;;;;;;5.78;1.50;;;10.90;1.00;;;;;;5048126;28;20128;-78
2024/01/03 03:35:20;;;;;;;5.30;1.50;;;11.00;1.00;;;;;;5047488;28;20029;-78
2024/01/03 03:37:48;;;;;;;4.07;1.45;;;11.00;1.00;;;;;;5048737;28;20048;-79
2024/01/03 03:40:15;;;;;;;3.95;1.48;;;11.00;1.00;;;;;;5064802;28;20045;-77
2024/01/03 03:42:47;;;;;;;4.60;1.50;;;11.00;1.00;;;;;;5047710;28;20137;-77
2024/01/03 03:45:16;;;;;;;4.72;2.10;;;11.00;1.00;;;;;;5046439;28;20076;-77
2024/01/03 03:47:45;;;;;;;3.63;1.45;;;11.00;1.00;;;;;;5061399;28;20045;-78
2024/01/03 03:50:13;;;;;;;3.45;1.30;;;11.00;1.00;;;;;;5056296;28;20041;-79
2024/01/03 03:52:40;;;;;;;3.38;1.30;;;11.10;1.00;;;;;;5028387;28;20091;-77
2024/01/03 03:55:09;;;;;;;4.70;1.83;;;11.10;1.00;;;;;;5054497;28;20056;-78
2024/01/03 03:57:36;;;;;;;3.28;1.38;;;11.10;1.00;;;;;;5042902;28;20045;-79
2024/01/03 04:00:05;;;;;;;3.38;1.38;;;11.00;1.00;;;;;;5039485;28;20561;-78
2024/01/03 04:02:39;;;;;;;4.18;1.50;;;11.00;1.00;;;;;;5055391;28;20493;-78
2024/01/03 04:05:12;;;;;;;2.83;1.38;;;11.10;1.00;;;;;;5061682;28;20045;-77
2024/01/03 04:07:40;;;;;;;3.00;1.23;;;11.10;1.00;;;;;;5037678;28;20050;-77
2024/01/03 04:10:09;;;;;;;4.28;1.40;;;11.20;1.00;;;;;;5061847;28;20461;-76
2024/01/03 04:12:38;;;;;;;3.63;1.13;;;11.20;1.00;;;;;;5063137;28;20052;-76
2024/01/03 04:15:19;;;;;;;3.67;1.20;;;11.20;1.00;;;;;;5028403;28;20060;-78
2024/01/03 04:17:46;;;;;;;3.65;1.25;;;11.30;1.00;;;;;;5039060;28;20864;-76
2024/01/03 04:20:16;;;;;;;3.08;1.23;;;11.30;1.00;;;;;;5048226;28;20041;-77
2024/01/03 04:22:45;;;;;;;3.17;1.20;;;11.40;1.00;;;;;;5050882;28;20037;-77
2024/01/03 04:25:13;;;;;;;3.95;1.27;;;11.40;1.00;;;;;;5039213;28;20080;-76
2024/01/03 04:27:40;;;;;;;2.90;1.05;;;11.40;1.00;;;;;;5027394;28;20076;-78
2024/01/03 04:30:17;;;;;;;3.13;1.10;;;11.50;1.00;;;;;;5032626;28;20065;-77
2024/01/03 04:32:45;;;;;;;3.80;1.38;;;11.50;1.00;;;;;;5047668;28;20063;-80
2024/01/03 04:35:13;;;;;;;2.90;1.05;;;11.50;1.00;;;;;;5029940;28;20404;-77
2024/01/03 04:37:42;;;;;;;3.40;1.30;;;11.40;1.00;;;;;;5045356;28;20127;-78
2024/01/03 04:40:12;;;;;;;3.47;0.90;;;11.50;1.00;;;;;;5031925;28;20056;-76
2024/01/03 04:42:39;;;;;;;3.50;1.23;;;11.70;1.00;;;;;;5033863;28;20045;-76
2024/01/03 04:45:07;;;;;;;4.15;1.27;;;11.60;1.00;;;;;;5065458;28;20057;-79
2024/01/03 04:47:37;;;;;;;3.35;1.20;;;11.60;1.00;;;;;;5051050;28;20037;-79
2024/01/03 04:50:05;;;;;;;4.57;1.38;;;11.60;1.00;;;;;;5051607;28;20452;-77
2024/01/03 04:52:33;;;;;;;2.83;0.90;;;11.60;1.00;;;;;;5057259;28;20042;-77
2024/01/03 04:55:02;;;;;;;3.03;1.10;;;11.60;1.00;;;;;;5044198;28;20051;-79
2024/01/03 04:57:30;;;;;;;2.95;1.10;;;11.60;1.00;;;;;;5042914;28;20030;-76
2024/01/03 04:59:57;;;;;;;4.65;1.50;;;11.60;1.00;;;;;;5040168;28;20059;-76
2024/01/03 05:02:25;;;;;;;4.85;1.90;;;11.60;1.00;;;;;;5042474;28;20037;-78
2024/01/03 05:04:53;;;;;;;3.88;1.70;;;11.60;1.00;;;;;;5059749;28;20056;-78
2024/01/03 05:07:20;;;;;;;4.70;1.65;;;11.60;1.00;;;;;;5023311;28;20137;-81
2024/01/03 05:09:48;;;;;;;8.27;1.50;;;11.60;1.00;;;;;;5030482;28;20513;-80
2024/01/03 05:12:20;;;;;;;3.70;1.40;;;11.60;1.00;;;;;;5058987;28;20038;-79
2024/01/03 05:14:48;;;;;;;4.53;1.33;;;11.60;1.00;;;;;;5030054;28;20053;-80
2024/01/03 05:17:16;;;;;;;5.68;1.73;;;11.60;1.00;;;;;;5025944;28;20048;-78
2024/01/03 05:19:44;;;;;;;4.30;1.35;;;11.60;1.00;;;;;;5025539;28;20140;-78
2024/01/03 05:22:11;;;;;;;5.75;1.42;;;11.70;1.00;;;;;;5043278;28;20033;-79
2024/01/03 05:24:39;;;;;;;3.67;1.50;;;11.70;1.00;;;;;;5035233;28;20066;-78
2024/01/03 05:27:07;;;;;;;9.50;7.30;;;11.80;1.00;;;;;;5026170;28;20057;-77
2024/01/03 05:29:36;;;;;;;4.60;1.40;;;11.90;1.00;;;;;;5023135;28;20049;-79
2024/01/03 05:32:05;;;;;;;3.70;1.17;;;11.90;1.00;;;;;;5026139;28;20052;-77
2024/01/03 05:34:33;;;;;;;4.55;1.30;;;12.00;1.00;;;;;;5024204;28;20140;-78
2024/01/03 05:37:01;;;;;;;5.47;1.50;;;12.00;1.00;;;;;;5041848;28;20051;-77
2024/01/03 05:39:29;;;;;;;4.05;1.48;;;12.10;1.00;;;;;;5024465;28;20440;-78
2024/01/03 05:41:56;;;;;;;5.13;1.88;;;12.10;1.00;;;;;;5025924;28;20049;-76
2024/01/03 05:44:24;;;;;;;6.00;2.10;;;12.10;1.00;;;;;;5032005;28;20045;-78
2024/01/03 05:46:53;;;;;;;5.25;2.47;;;12.10;1.00;;;;;;5049740;28;20038;-77
2024/01/03 05:49:21;;;;;;;6.65;2.67;;;12.10;1.00;;;;;;5065855;28;20056;-79
2024/01/03 05:51:48;;;;;;;9.60;3.75;;;12.10;1.00;;;;;;5067663;28;20059;-77
2024/01/03 05:54:16;;;;;;;7.90;3.05;;;12.00;1.00;;;;;;5048768;28;20045;-79
2024/01/03 05:56:44;;;;;;;5.30;2.60;;;12.00;1.00;;;;;;5053030;28;20078;-79
2024/01/03 05:59:11;;;;;;;8.48;2.38;;;12.10;1.00;;;;;;5050816;28;20036;-77
2024/01/03 06:01:39;;;;;;;5.43;1.98;;;12.10;1.00;;;;;;5047630;28;20061;-77
2024/01/03 06:04:08;;;;;;;6.43;2.05;;;12.10;1.00;;;;;;5051764;28;20045;-78
2024/01/03 06:06:37;;;;;;;4.25;1.85;;;12.10;1.00;;;;;;5027446;28;20072;-78
2024/01/03 06:09:05;;;;;;;5.60;2.15;;;12.20;1.00;;;;;;5023761;28;20049;-77
2024/01/03 06:11:32;;;;;;;6.30;3.03;;;12.20;1.00;;;;;;5032883;28;20475;-78
2024/01/03 06:14:00;;;;;;;7.20;3.72;;;12.30;1.00;;;;;;5026633;28;20048;-78
2024/01/03 06:16:28;;;;;;;7.90;3.30;;;12.30;1.00;;;;;;5054454;28;20067;-78
2024/01/03 06:18:56;;;;;;;5.15;1.98;;;12.20;1.00;;;;;;5046158;28;20048;-79
2024/01/03 06:21:27;;;;;;;5.22;2.20;;;12.30;1.00;;;;;;5026132;28;20057;-79
2024/01/03 06:23:55;;;;;;;5.38;2.17;;;12.30;1.00;;;;;;5044498;28;20052;-78
2024/01/03 06:26:26;;;;;;;5.68;2.67;;;12.30;1.00;;;;;;5068526;28;20042;-79
2024/01/03 06:28:54;;;;;;;4.75;2.55;;;12.30;1.00;;;;;;5048018;28;20042;-78
2024/01/03 06:31:22;;;;;;;5.15;2.05;;;12.30;1.00;;;;;;5059571;28;20049;-80
2024/01/03 06:33:50;;;;;;;4.57;2.22;;;12.40;1.00;;;;;;5052076;28;20501;-79
2024/01/03 06:36:18;;;;;;;4.57;2.00;;;12.40;1.00;;;;;;5024884;28;20065;-75
2024/01/03 06:38:48;;;;;;;4.82;2.38;;;12.40;1.00;;;;;;5030365;28;20049;-78
2024/01/03 06:41:18;;;;;;;6.82;2.50;;;12.20;1.00;;;;;;5032453;28;20435;-77
2024/01/03 06:43:46;;;;;;;5.88;2.10;;;12.20;1.00;;;;;;5024757;28;20135;-78
2024/01/03 06:46:13;;;;;;;4.25;1.80;;;12.10;1.00;;;;;;5042631;28;20067;-76
2024/01/03 06:48:41;;;;;;;8.00;4.25;;;12.10;1.00;;;;;;5024618;28;20045;-77
2024/01/03 06:51:09;;;;;;;8.07;3.78;;;12.20;1.00;;;;;;5026658;28;20056;-77
2024/01/03 06:53:42;;;;;;;4.55;2.35;;;12.20;1.00;;;;;;5027939;28;20115;-76
2024/01/03 06:56:12;;;;;;;5.13;2.10;;;12.10;17.60;;;;;;5022394;28;20042;-75
2024/01/03 06:58:39;;;;;;;5.05;2.42;;;12.10;15.00;;;;;;5024744;28;20057;-76
2024/01/03 07:01:07;;;;;;;4.55;2.35;;;12.10;50.30;;;;;;5040114;28;20041;-77
2024/01/03 07:03:35;;;;;;;5.55;2.90;;;11.90;99.90;;;;;;5025053;28;20038;-77
2024/01/03 07:06:06;;;;;;;6.75;3.58;;;11.80;1.00;;;;;;5040818;28;20034;-77
2024/01/03 07:08:34;;;;;;;8.65;2.92;;;11.70;1.00;;;;;;5024290;28;20045;-78
2024/01/03 07:11:02;;;;;;;6.35;3.00;;;11.60;1.00;;;;;;5021217;28;20041;-77
2024/01/03 07:13:32;;;;;;;6.55;3.00;;;11.60;70.40;;;;;;5023683;28;20048;-78
2024/01/03 07:16:03;;;;;;;5.47;3.03;;;11.60;1.00;;;;;;5021831;28;20041;-78
2024/01/03 07:18:31;;;;;;;7.13;3.20;;;11.60;1.00;;;;;;5022765;28;20520;-78
2024/01/03 07:20:58;;;;;;;7.55;3.63;;;11.60;1.00;;;;;;5024640;28;20060;-79
2024/01/03 07:23:26;;;;;;;7.55;3.97;;;11.50;1.00;;;;;;5027934;28;20053;-78
2024/01/03 07:25:56;;;;;;;7.03;3.40;;;11.60;99.90;;;;;;5030087;28;20133;-77
2024/01/03 07:28:23;;;;;;;5.70;3.10;;;11.60;1.00;;;;;;5048425;28;20128;-77
2024/01/03 07:30:53;;;;;;;8.52;3.03;;;11.50;1.00;;;;;;5043631;28;20045;-78
2024/01/03 07:33:21;;;;;;;6.97;2.60;;;11.50;1.00;;;;;;5053533;28;20079;-78
2024/01/03 07:35:48;;;;;;;5.93;2.42;;;11.60;70.10;;;;;;5031655;28;20606;-77
2024/01/03 07:38:16;;;;;;;5.57;2.40;;;11.70;99.90;;;;;;5029737;28;20041;-76
2024/01/03 07:40:45;;;;;;;4.50;2.67;;;11.70;42.80;;;;;;5032553;28;20049;-80
2024/01/03 07:43:18;;;;;;;6.93;4.10;;;11.60;1.00;;;;;;5063209;28;20075;-77
2024/01/03 07:45:46;;;;;;;11.95;7.00;;;11.60;1.00;;;;;;5034509;28;20056;-78
2024/01/03 07:48:17;;;;;;;16.23;8.95;;;11.60;1.00;;;;;;5024910;28;20132;-80
2024/01/03 07:50:45;;;;;;;13.45;7.68;;;11.60;1.00;;;;;;5052583;28;20057;-78
2024/01/03 07:53:13;;;;;;;14.38;8.63;;;11.60;1.00;;;;;;5030104;28;20084;-78
2024/01/03 07:55:40;;;;;;;16.33;10.20;;;11.60;1.00;;;;;;5040881;28;20046;-78
2024/01/03 07:58:13;;;;;;;9.85;6.40;;;11.70;99.90;;;;;;5059923;28;20034;-79
2024/01/03 08:00:41;;;;;;;13.07;6.75;;;11.80;1.00;;;;;;5034408;28;20055;-80
2024/01/03 08:03:09;;;;;;;11.30;6.45;;;11.90;1.00;;;;;;5027969;28;20045;-78
2024/01/03 08:05:42;;;;;;;10.90;7.07;;;11.90;99.90;;;;;;5044518;28;20038;-78
2024/01/03 08:08:11;;;;;;;16.67;10.63;;;11.90;99.90;;;;;;5049273;28;20041;-79
2024/01/03 08:10:39;;;;;;;12.77;7.70;;;12.00;1.00;;;;;;5029544;28;20258;-79
2024/01/03 08:13:08;;;;;;;10.60;6.25;;;12.10;1.00;;;;;;5027051;28;20061;-79
2024/01/03 08:15:37;;;;;;;10.73;6.57;;;12.10;1.00;;;;;;5044329;28;20037;-78
2024/01/03 08:18:08;;;;;;;11.18;6.32;;;12.20;1.00;;;;;;5030777;28;20113;-79
2024/01/03 08:20:47;;;;;;;;;;;;;;;;;;;;;
2024/01/03 08:23:19;;;;;;;20.60;12.60;;;12.30;1.00;;;;;;5053208;22;20060;-80
2024/01/03 08:25:47;;;;;;;28.65;18.70;;;12.40;1.00;;;;;;5026385;28;20103;-80
2024/01/03 08:28:15;;;;;;;16.45;10.07;;;12.30;1.00;;;;;;5043976;28;20068;-79
2024/01/03 08:30:43;;;;;;;18.13;10.65;;;12.40;1.00;;;;;;5045954;28;20045;-79
2024/01/03 08:33:10;;;;;;;16.85;11.10;;;12.40;1.00;;;;;;5045313;28;20047;-79
2024/01/03 08:35:39;;;;;;;15.32;8.85;;;12.50;1.00;;;;;;5042621;28;20033;-80
2024/01/03 08:38:07;;;;;;;20.17;10.52;;;12.40;1.00;;;;;;5025008;28;20063;-79
2024/01/03 08:40:35;;;;;;;16.30;8.80;;;12.50;1.00;;;;;;5048473;28;20052;-77
2024/01/03 08:43:04;;;;;;;25.60;13.23;;;12.40;99.90;;;;;;5043034;28;20075;-80
2024/01/03 08:45:32;;;;;;;24.30;14.10;;;12.40;1.00;;;;;;5041628;28;20083;-80
2024/01/03 08:48:03;;;;;;;29.55;17.05;;;12.30;1.00;;;;;;5041012;28;20033;-79
2024/01/03 08:50:30;;;;;;;44.47;26.52;;;12.30;99.90;;;;;;5042473;28;20041;-78
2024/01/03 08:53:00;;;;;;;48.70;29.92;;;12.20;1.00;;;;;;5042785;28;20527;-79
2024/01/03 08:55:27;;;;;;;52.25;33.13;;;12.20;1.00;;;;;;5043669;28;20045;-78
2024/01/03 08:57:56;;;;;;;53.80;32.70;;;12.10;99.90;;;;;;5042659;28;20045;-78
2024/01/03 09:00:24;;;;;;;59.38;37.53;;;12.20;1.00;;;;;;5043495;28;20045;-80
2024/01/03 09:02:52;;;;;;;63.33;41.13;;;12.20;99.90;;;;;;5042847;28;20041;-77
2024/01/03 09:05:20;;;;;;;77.45;51.25;;;12.00;1.00;;;;;;5044152;28;20446;-78
2024/01/03 09:07:48;;;;;;;88.65;57.83;;;11.80;1.00;;;;;;5045742;28;20512;-80
2024/01/03 09:10:17;;;;;;;90.13;56.60;;;11.70;1.00;;;;;;5054269;28;20148;-81
2024/01/03 09:12:45;;;;;;;91.40;56.45;;;11.60;1.00;;;;;;5050041;28;20048;-79
2024/01/03 09:15:12;;;;;;;63.30;40.28;;;11.60;22.00;;;;;;5042617;28;20045;-79
2024/01/03 09:17:42;;;;;;;64.72;41.78;;;11.50;1.00;;;;;;5055827;28;20505;-79
2024/01/03 09:20:11;;;;;;;69.75;42.25;;;11.50;1.00;;;;;;5035358;28;20119;-80
2024/01/03 09:22:39;;;;;;;50.10;32.35;;;11.40;1.00;;;;;;5052071;28;20061;-80
2024/01/03 09:25:07;;;;;;;51.50;31.60;;;11.40;99.90;;;;;;5050362;28;20115;-80
2024/01/03 09:27:37;;;;;;;48.28;30.30;;;11.30;1.00;;;;;;5047204;28;20038;-80
2024/01/03 09:30:06;;;;;;;44.30;29.58;;;11.40;1.00;;;;;;5048665;28;20045;-80
2024/01/03 09:32:34;;;;;;;47.63;32.30;;;11.40;1.00;;;;;;5049108;28;20041;-77
2024/01/03 09:35:01;;;;;;;44.42;31.00;;;11.50;1.00;;;;;;5049997;28;20061;-80
2024/01/03 09:37:30;;;;;;;41.60;28.08;;;11.50;1.00;;;;;;5050147;28;20132;-80
2024/01/03 09:39:59;;;;;;;50.78;32.97;;;11.50;1.00;;;;;;5050004;28;20044;-79
2024/01/03 09:42:30;;;;;;;53.25;32.55;;;11.60;99.90;;;;;;5031806;28;20144;-82
2024/01/03 09:45:00;;;;;;;46.92;30.75;;;11.60;1.00;;;;;;5030359;28;20052;-80
2024/01/03 09:47:27;;;;;;;47.85;31.70;;;11.60;1.00;;;;;;5056389;28;20045;-77
2024/01/03 09:49:55;;;;;;;40.33;25.98;;;11.70;99.90;;;;;;5045015;28;20114;-80
2024/01/03 09:52:23;;;;;;;37.75;24.33;;;11.80;99.90;;;;;;5047775;28;20501;-78
2024/01/03 09:54:51;;;;;;;51.28;26.30;;;11.80;32.50;;;;;;5023004;28;20065;-79
2024/01/03 09:57:21;;;;;;;40.28;26.92;;;11.90;1.00;;;;;;5047358;28;20060;-80
2024/01/03 09:59:48;;;;;;;40.25;25.17;;;11.90;99.90;;;;;;5047578;28;20045;-79
2024/01/03 10:02:17;;;;;;;41.58;27.73;;;12.00;1.00;;;;;;5050164;28;20068;-81
2024/01/03 10:04:46;;;;;;;42.00;27.88;;;11.90;99.90;;;;;;5049723;28;20562;-79
2024/01/03 10:07:13;;;;;;;37.65;24.17;;;11.80;99.90;;;;;;5028375;28;20083;-79
2024/01/03 10:09:44;;;;;;;35.72;23.42;;;11.90;1.00;;;;;;5048444;28;20041;-79
2024/01/03 10:12:17;;;;;;;31.15;19.20;;;12.10;1.00;;;;;;5043857;28;20053;-78
2024/01/03 10:14:46;;;;;;;43.78;23.95;;;12.10;99.90;;;;;;5046319;28;20120;-79
2024/01/03 10:17:14;;;;;;;31.40;21.73;;;12.00;1.00;;;;;;5047586;28;20099;-81
2024/01/03 10:19:43;;;;;;;32.75;23.17;;;12.00;99.90;;;;;;5044363;28;20931;-81
2024/01/03 10:22:10;;;;;;;38.30;25.35;;;12.00;1.00;;;;;;5042491;28;20045;-79
2024/01/03 10:24:46;;;;;;;48.50;31.27;;;12.00;1.00;;;;;;5026487;28;20160;-79
2024/01/03 10:27:13;;;;;;;57.63;36.33;;;11.90;99.90;;;;;;5021538;28;20103;-77
2024/01/03 10:29:41;;;;;;;55.60;35.55;;;11.80;99.90;;;;;;5039644;28;20038;-81
2024/01/03 10:32:16;;;;;;;55.95;37.28;;;11.90;51.00;;;;;;5038090;28;20107;-78
2024/01/03 10:34:45;;;;;;;53.03;36.67;;;12.10;1.00;;;;;;5047978;28;20053;-78
2024/01/03 10:37:12;;;;;;;49.67;32.85;;;12.20;1.00;;;;;;5025567;28;20049;-78
2024/01/03 10:39:42;;;;;;;50.30;33.38;;;12.40;99.90;;;;;;5041425;28;20485;-80
2024/01/03 10:45:01;;;;;;;58.00;36.42;;;12.70;1.00;;;;;;5194512;22;20064;-79
2024/01/03 10:47:31;;;;;;;52.78;36.53;;;12.80;99.90;;;;;;5073379;23;20109;-79
2024/01/03 10:50:10;;;;;;;46.35;32.53;;;12.90;1.00;;;;;;5076441;28;20045;-79
2024/01/03 10:52:38;;;;;;;41.67;28.48;;;13.00;1.00;;;;;;5064738;22;20430;-79
2024/01/03 10:58:00;;;;;;;34.42;23.77;;;12.70;99.90;;;;;;5287978;22;20041;-86
2024/01/03 11:00:45;;;;;;;31.63;21.67;;;12.40;1.00;;;;;;5106137;22;20042;-79
2024/01/03 11:03:23;;;;;;;35.28;24.13;;;12.40;1.00;;;;;;5066975;28;20080;-81
2024/01/03 11:08:57;;;;;;;41.92;27.35;;;12.50;1.00;;;;;;5010543;28;20051;-78
2024/01/03 11:11:35;;;;;;;47.47;31.00;;;12.50;36.60;;;;;;4993484;28;20050;-79
2024/01/03 11:14:22;;;;;;;41.53;28.00;;;12.80;1.00;;;;;;5060127;23;20116;-79
2024/01/03 11:16:50;;;;;;;39.30;25.73;;;13.00;99.90;;;;;;4972138;28;20038;-79
2024/01/03 11:19:31;;;;;;;40.90;26.48;;;13.20;99.90;;;;;;4992514;28;20109;-79
2024/01/03 11:22:02;;;;;;;45.40;28.55;;;13.30;99.90;;;;;;5003081;28;20060;-81
2024/01/03 11:24:59;;;;;;;41.58;27.88;;;13.50;99.90;;;;;;4990923;28;20031;-82
2024/01/03 11:27:28;;;;;;;43.17;28.40;;;13.50;99.90;;;;;;5027918;22;20080;-88
2024/01/03 11:29:54;;;;;;;49.03;34.20;;;13.40;99.90;;;;;;5018428;28;20049;-88
2024/01/03 11:32:36;;;;;;;54.42;35.35;;;13.30;1.00;;;;;;5036680;28;20050;-88
2024/01/03 11:35:08;;;;;;;29.88;20.80;;;13.30;99.90;;;;;;5039442;28;20049;-87
2024/01/03 11:37:37;;;;;;;41.08;26.48;;;13.40;1.00;;;;;;5041059;28;20132;-88
2024/01/03 11:40:21;;;;;;;40.15;25.92;;;13.40;1.00;;;;;;5062180;28;20041;-89
2024/01/03 11:42:57;;;;;;;31.67;20.70;;;13.50;1.00;;;;;;5047592;28;20037;-90
2024/01/03 11:45:25;;;;;;;26.65;17.35;;;13.60;99.90;;;;;;5041405;28;20045;-89
2024/01/03 11:47:53;;;;;;;36.80;22.67;;;13.80;99.90;;;;;;5037100;28;20427;-86
2024/01/03 11:50:21;;;;;;;27.05;17.25;;;14.00;99.90;;;;;;5035963;28;20080;-86
2024/01/03 11:52:49;;;;;;;34.75;20.65;;;14.20;99.90;;;;;;5057135;28;20056;-88
2024/01/03 11:55:19;;;;;;;34.65;22.48;;;14.10;99.90;;;;;;5058504;28;20048;-86
2024/01/03 11:57:49;;;;;;;36.85;24.40;;;14.20;99.90;;;;;;5053707;28;20045;-86
2024/01/03 12:00:20;;;;;;;39.40;23.88;;;14.30;99.90;;;;;;5054182;28;20037;-87
2024/01/03 12:02:54;;;;;;;33.50;22.75;;;14.30;95.10;;;;;;5051601;28;20049;-86
2024/01/03 12:05:23;;;;;;;33.08;21.42;;;14.30;95.70;;;;;;5034881;28;20048;-88
2024/01/03 12:07:52;;;;;;;31.75;18.83;;;14.30;91.20;;;;;;5019052;28;20041;-86
2024/01/03 12:10:23;;;;;;;19.35;12.68;;;14.40;35.10;;;;;;5035821;28;20056;-88
2024/01/03 12:12:52;;;;;;;19.83;12.55;;;14.50;1.00;;;;;;5034521;28;20048;-89
2024/01/03 12:15:26;;;;;;;18.92;12.02;;;14.70;1.00;;;;;;5037390;28;20488;-83
2024/01/03 12:17:54;;;;;;;27.98;16.80;;;14.80;1.00;;;;;;5038543;28;20037;-89
2024/01/03 12:20:22;;;;;;;30.27;20.30;;;14.90;1.00;;;;;;5041111;28;20045;-89
2024/01/03 12:22:52;;;;;;;28.98;18.95;;;14.80;1.00;;;;;;5056395;28;20068;-90
2024/01/03 12:25:28;;;;;;;27.67;18.52;;;14.90;1.00;;;;;;5041532;28;20061;-90
2024/01/03 12:27:59;;;;;;;25.40;16.50;;;15.00;1.00;;;;;;5042028;28;20049;-90
2024/01/03 12:30:26;;;;;;;22.73;13.70;;;15.10;1.00;;;;;;5043920;28;20045;-89
2024/01/03 12:33:11;;;;;;;25.33;15.40;;;15.20;1.00;;;;;;5043365;28;20049;-91
2024/01/03 12:35:38;;;;;;;18.30;12.20;;;15.30;1.00;;;;;;5058714;28;20041;-90
2024/01/03 12:38:06;;;;;;;23.42;15.15;;;15.40;1.00;;;;;;5039526;28;20104;-91
2024/01/03 12:40:39;;;;;;;16.90;10.45;;;15.40;1.00;;;;;;5037283;28;20041;-89
2024/01/03 12:43:06;;;;;;;13.07;8.05;;;15.40;1.00;;;;;;5055832;28;20068;-88
2024/01/03 12:45:37;;;;;;;18.73;12.13;;;15.50;1.00;;;;;;5042459;28;20483;-90
2024/01/03 12:48:08;;;;;;;21.23;12.95;;;15.60;1.00;;;;;;5048793;28;20052;-88
2024/01/03 12:50:36;;;;;;;9.25;5.28;;;15.70;1.00;;;;;;5037544;28;20089;-87
2024/01/03 12:53:09;;;;;;;8.02;4.78;;;15.80;1.00;;;;;;5036793;28;20045;-89
2024/01/03 12:55:38;;;;;;;36.25;28.77;;;15.80;1.00;;;;;;5284649;22;20057;-89
2024/01/03 12:58:48;;;;;;;8.90;5.68;;;15.90;1.00;;;;;;5073386;28;20053;-92
2024/01/03 13:01:17;;;;;;;12.90;7.63;;;16.00;1.00;;;;;;5058832;28;20036;-89
2024/01/03 13:03:48;;;;;;;17.83;12.57;;;15.90;1.00;;;;;;5045838;28;20049;-88